createdAt,value
2022-11-05T00:00:07.931Z,96249.25
2022-11-05T00:02:53.037Z,96254.75
2022-11-05T00:05:38.124Z,96260.25
2022-11-05T00:08:23.248Z,96254.38
2022-11-05T00:11:09.146Z,96258.47
2022-11-05T00:13:56.449Z,96263.34
2022-11-05T00:16:41.491Z,96264.94
2022-11-05T00:19:26.701Z,96253.38
2022-11-05T00:22:11.811Z,96266.38
2022-11-05T00:24:56.683Z,96272.06
2022-11-05T00:27:41.779Z,96267.00
2022-11-05T00:30:26.746Z,96271.84
2022-11-05T00:33:12.170Z,96289.72
2022-11-05T00:35:57.474Z,96283.41
2022-11-05T00:38:42.638Z,96300.09
2022-11-05T00:41:27.714Z,96297.03
2022-11-05T00:44:12.785Z,96302.09
2022-11-05T00:46:59.946Z,96303.13
2022-11-05T00:49:44.788Z,96307.78
2022-11-05T00:52:29.889Z,96311.84
2022-11-05T00:55:14.855Z,96309.59
2022-11-05T00:57:59.867Z,96318.34
2022-11-05T01:00:44.961Z,96313.47
2022-11-05T01:03:29.974Z,96313.88
2022-11-05T01:06:15.169Z,96312.25
2022-11-05T01:09:00.057Z,96313.06
2022-11-05T01:11:45.233Z,96327.50
2022-11-05T01:14:30.175Z,96324.22
2022-11-05T01:17:15.272Z,96326.28
2022-11-05T01:20:00.358Z,96324.66
2022-11-05T01:22:45.439Z,96326.50
2022-11-05T01:25:30.747Z,96325.69
2022-11-05T01:28:15.855Z,96327.75
2022-11-05T01:31:00.878Z,96326.31
2022-11-05T01:33:45.928Z,96327.09
2022-11-05T01:36:31.153Z,96324.06
2022-11-05T01:39:16.163Z,96326.91
2022-11-05T01:42:01.174Z,96335.41
2022-11-05T01:44:46.449Z,96327.50
2022-11-05T01:47:31.395Z,96341.34
2022-11-05T01:50:16.572Z,96332.19
2022-11-05T01:53:01.619Z,96337.69
2022-11-05T01:55:46.654Z,96339.09
2022-11-05T01:58:31.669Z,96342.13
2022-11-05T02:01:16.993Z,96342.72
2022-11-05T02:04:02.131Z,96344.78
2022-11-05T02:06:47.105Z,96337.25
2022-11-05T02:09:32.195Z,96338.06
2022-11-05T02:12:17.159Z,96343.13
2022-11-05T02:15:02.257Z,96347.59
2022-11-05T02:17:47.307Z,96352.09
2022-11-05T02:20:32.296Z,96358.63
2022-11-05T02:23:17.373Z,96364.50
2022-11-05T02:26:02.453Z,96367.78
2022-11-05T02:28:47.638Z,96367.16
2022-11-05T02:31:32.681Z,96370.41
2022-11-05T02:34:17.572Z,96366.97
2022-11-05T02:37:02.319Z,96372.66
2022-11-05T02:39:47.380Z,96377.34
2022-11-05T02:42:32.396Z,96373.06
2022-11-05T02:45:17.349Z,96376.09
2022-11-05T02:48:02.295Z,96378.97
2022-11-05T02:50:47.055Z,96381.41
2022-11-05T02:53:32.379Z,96389.13
2022-11-05T02:56:17.096Z,96380.34
2022-11-05T02:59:02.028Z,96383.41
2022-11-05T03:01:47.240Z,96391.34
2022-11-05T03:04:32.108Z,96398.88
2022-11-05T03:07:17.154Z,96394.81
2022-11-05T03:10:02.458Z,96402.13
2022-11-05T03:12:47.596Z,96410.66
2022-11-05T03:15:32.707Z,96409.84
2022-11-05T03:18:17.713Z,96403.53
2022-11-05T03:21:02.863Z,96404.56
2022-11-05T03:23:48.042Z,96402.53
2022-11-05T03:26:33.068Z,96399.25
2022-11-05T03:29:18.191Z,96414.31
2022-11-05T03:32:03.339Z,96415.75
2022-11-05T03:34:48.251Z,96418.22
2022-11-05T03:37:33.477Z,96430.38
2022-11-05T03:40:18.571Z,96426.72
2022-11-05T03:43:03.746Z,96441.97
2022-11-05T03:45:48.823Z,96433.88
2022-11-05T03:48:33.805Z,96437.50
2022-11-05T03:51:18.871Z,96435.69
2022-11-05T03:54:04.017Z,96443.41
2022-11-05T03:56:49.201Z,96445.66
2022-11-05T03:59:34.199Z,96443.41
2022-11-05T04:02:19.420Z,96440.38
2022-11-05T04:05:04.298Z,96444.22
2022-11-05T04:07:49.553Z,96443.00
2022-11-05T04:10:34.634Z,96444.03
2022-11-05T04:13:19.715Z,96449.50
2022-11-05T04:16:04.808Z,96450.94
2022-11-05T04:18:49.753Z,96451.53
2022-11-05T04:21:34.891Z,96454.19
2022-11-05T04:24:20.081Z,96453.97
2022-11-05T04:27:05.111Z,96450.09
2022-11-05T04:29:49.986Z,96451.31
2022-11-05T04:32:35.125Z,96455.38
2022-11-05T04:35:20.141Z,96455.38
2022-11-05T04:38:05.193Z,96461.50
2022-11-05T04:40:50.359Z,96460.88
2022-11-05T04:43:35.432Z,96464.34
2022-11-05T04:46:20.511Z,96465.97
2022-11-05T04:49:05.611Z,96470.25
2022-11-05T04:51:50.417Z,96474.72
2022-11-05T04:54:35.321Z,96474.50
2022-11-05T04:57:20.490Z,96476.94
2022-11-05T05:00:05.640Z,96483.66
2022-11-05T05:02:50.743Z,96483.66
2022-11-05T05:05:35.769Z,96484.06
2022-11-05T05:08:20.723Z,96488.34
2022-11-05T05:11:05.753Z,96491.19
2022-11-05T05:13:50.793Z,96498.50
2022-11-05T05:16:35.830Z,96496.09
2022-11-05T05:19:20.917Z,96495.06
2022-11-05T05:22:05.833Z,96497.28
2022-11-05T05:24:52.976Z,96503.16
2022-11-05T05:27:37.885Z,96506.19
2022-11-05T05:30:22.939Z,96508.63
2022-11-05T05:33:07.997Z,96506.19
2022-11-05T05:35:52.788Z,96520.03
2022-11-05T05:38:37.794Z,96522.88
2022-11-05T05:41:22.795Z,96519.41
2022-11-05T05:44:07.886Z,96514.94
2022-11-05T05:46:52.973Z,96521.88
2022-11-05T05:49:38.140Z,96521.88
2022-11-05T05:52:23.057Z,96525.16
2022-11-05T05:55:08.227Z,96530.03
2022-11-05T05:57:53.374Z,96518.84
2022-11-05T06:00:38.400Z,96518.44
2022-11-05T06:03:23.564Z,96529.03
2022-11-05T06:06:08.612Z,96533.91
2022-11-05T06:08:53.891Z,96545.06
2022-11-05T06:11:38.786Z,96544.88
2022-11-05T06:14:24.124Z,96550.53
2022-11-05T06:17:09.202Z,96549.75
2022-11-05T06:19:54.266Z,96546.50
2022-11-05T06:22:39.333Z,96549.75
2022-11-05T06:25:24.374Z,96552.41
2022-11-05T06:28:09.501Z,96549.34
2022-11-05T06:30:54.479Z,96553.81
2022-11-05T06:33:39.690Z,96549.34
2022-11-05T06:36:24.526Z,96556.06
2022-11-05T06:39:09.678Z,96564.63
2022-11-05T06:42:17.241Z,96566.22
2022-11-05T06:44:59.814Z,96568.88
2022-11-05T06:47:44.872Z,96567.03
2022-11-05T06:50:29.954Z,96576.19
2022-11-05T06:53:14.905Z,96578.25
2022-11-05T06:56:00.118Z,96572.31
2022-11-05T06:58:45.160Z,96581.25
2022-11-05T07:01:30.322Z,96584.91
2022-11-05T07:04:15.161Z,96592.22
2022-11-05T07:07:00.186Z,96592.47
2022-11-05T07:09:45.378Z,96598.19
2022-11-05T07:12:30.540Z,96598.34
2022-11-05T07:15:15.558Z,96606.28
2022-11-05T07:18:00.710Z,96605.88
2022-11-05T07:20:45.901Z,96600.41
2022-11-05T07:23:30.973Z,96608.75
2022-11-05T07:26:16.115Z,96618.50
2022-11-05T07:29:01.207Z,96623.38
2022-11-05T07:31:46.201Z,96627.00
2022-11-05T07:34:31.463Z,96631.03
2022-11-05T07:37:16.368Z,96635.50
2022-11-05T07:40:01.470Z,96633.13
2022-11-05T07:42:46.427Z,96635.75
2022-11-05T07:45:31.392Z,96638.41
2022-11-05T07:48:16.575Z,96641.72
2022-11-05T07:51:01.890Z,96649.06
2022-11-05T07:53:46.919Z,96660.66
2022-11-05T07:56:31.979Z,96656.22
2022-11-05T07:59:17.088Z,96653.78
2022-11-05T08:02:02.342Z,96654.19
2022-11-05T08:04:47.595Z,96650.94
2022-11-05T08:07:32.737Z,96655.00
2022-11-05T08:10:17.853Z,96657.03
2022-11-05T08:13:03.029Z,96670.06
2022-11-05T08:15:48.169Z,96666.22
2022-11-05T08:18:33.215Z,96672.34
2022-11-05T08:21:18.311Z,96668.69
2022-11-05T08:24:03.396Z,96666.66
2022-11-05T08:26:48.422Z,96673.59
2022-11-05T08:29:33.344Z,96676.44
2022-11-05T08:32:18.410Z,96679.69
2022-11-05T08:35:03.423Z,96684.75
2022-11-05T08:37:48.502Z,96683.47
2022-11-05T08:40:33.521Z,96685.75
2022-11-05T08:43:18.641Z,96693.13
2022-11-05T08:46:03.752Z,96691.50
2022-11-05T08:48:48.891Z,96684.16
2022-11-05T08:51:33.946Z,96683.56
2022-11-05T08:54:18.999Z,96686.78
2022-11-05T08:57:04.171Z,96686.59
2022-11-05T08:59:49.192Z,96686.19
2022-11-05T09:02:34.535Z,96678.63
2022-11-05T09:05:19.449Z,96687.19
2022-11-05T09:08:04.350Z,96698.97
2022-11-05T09:10:49.397Z,96696.31
2022-11-05T09:13:34.552Z,96698.97
2022-11-05T09:16:19.549Z,96703.66
2022-11-05T09:19:04.643Z,96702.81
2022-11-05T09:21:49.923Z,96707.69
2022-11-05T09:24:34.759Z,96715.44
2022-11-05T09:27:19.936Z,96711.78
2022-11-05T09:30:05.064Z,96708.50
2022-11-05T09:32:50.095Z,96712.78
2022-11-05T09:35:35.294Z,96710.13
2022-11-05T09:38:20.305Z,96709.28
2022-11-05T09:41:05.574Z,96711.53
2022-11-05T09:43:50.649Z,96708.06
2022-11-05T09:46:35.566Z,96715.41
2022-11-05T09:49:20.534Z,96717.47
2022-11-05T09:52:05.733Z,96716.19
2022-11-05T09:54:50.911Z,96718.50
2022-11-05T09:57:36.096Z,96728.06
2022-11-05T10:00:21.287Z,96730.75
2022-11-05T10:03:06.381Z,96731.38
2022-11-05T10:05:51.491Z,96734.19
2022-11-05T10:08:36.518Z,96734.19
2022-11-05T10:11:21.674Z,96734.38
2022-11-05T10:14:06.643Z,96736.19
2022-11-05T10:16:51.913Z,96740.06
2022-11-05T10:19:36.937Z,96735.16
2022-11-05T10:22:21.963Z,96735.16
2022-11-05T10:25:07.139Z,96743.13
2022-11-05T10:27:52.180Z,96744.59
2022-11-05T10:30:37.303Z,96740.94
2022-11-05T10:33:22.431Z,96739.34
2022-11-05T10:36:07.567Z,96745.44
2022-11-05T10:38:52.698Z,96740.31
2022-11-05T10:41:37.737Z,96736.25
2022-11-05T10:44:22.803Z,96736.59
2022-11-05T10:47:07.811Z,96722.31
2022-11-05T10:49:53.050Z,96722.31
2022-11-05T10:52:38.120Z,96729.81
2022-11-05T10:55:23.369Z,96717.13
2022-11-05T10:58:08.458Z,96715.28
2022-11-05T11:00:53.466Z,96716.69
2022-11-05T11:03:38.704Z,96716.91
2022-11-05T11:06:23.731Z,96712.44
2022-11-05T11:09:08.637Z,96716.06
2022-11-05T11:11:53.582Z,96713.22
2022-11-05T11:14:38.636Z,96711.16
2022-11-05T11:17:23.669Z,96711.78
2022-11-05T11:20:08.842Z,96709.88
2022-11-05T11:22:53.957Z,96715.06
2022-11-05T11:25:39.030Z,96715.06
2022-11-05T11:28:24.109Z,96712.94
2022-11-05T11:31:09.342Z,96714.34
2022-11-05T11:33:54.338Z,96707.81
2022-11-05T11:36:39.508Z,96702.75
2022-11-05T11:39:24.497Z,96701.50
2022-11-05T11:42:09.610Z,96697.44
2022-11-05T11:44:54.677Z,96690.31
2022-11-05T11:47:39.695Z,96702.94
2022-11-05T11:50:24.761Z,96702.03
2022-11-05T11:53:10.173Z,96701.84
2022-11-05T11:55:55.588Z,96713.44
2022-11-05T11:58:40.814Z,96712.81
2022-11-05T12:01:25.920Z,96711.47
2022-11-05T12:04:10.998Z,96706.13
2022-11-05T12:06:56.198Z,96704.13
2022-11-05T12:09:41.155Z,96684.09
2022-11-05T12:12:26.258Z,96691.88
2022-11-05T12:15:11.259Z,96696.28
2022-11-05T12:17:56.503Z,96682.09
2022-11-05T12:20:41.671Z,96686.78
2022-11-05T12:23:26.614Z,96690.44
2022-11-05T12:26:11.822Z,96694.50
2022-11-05T12:29:17.981Z,96698.53
2022-11-05T12:32:01.859Z,96697.31
2022-11-05T12:34:47.023Z,96700.13
2022-11-05T12:37:32.035Z,96696.75
2022-11-05T12:40:17.246Z,96692.06
2022-11-05T12:43:04.386Z,96691.97
2022-11-05T12:45:51.402Z,96699.84
2022-11-05T12:48:37.367Z,96695.91
2022-11-05T12:51:22.591Z,96686.53
2022-11-05T12:54:07.719Z,96686.94
2022-11-05T12:56:52.936Z,96690.88
2022-11-05T12:59:37.955Z,96695.34
2022-11-05T13:02:23.245Z,96698.19
2022-11-05T13:05:08.107Z,96693.34
2022-11-05T13:07:53.103Z,96697.00
2022-11-05T13:10:38.152Z,96690.50
2022-11-05T13:13:22.781Z,96688.22
2022-11-05T13:16:07.834Z,96702.44
2022-11-05T13:18:52.772Z,96691.31
2022-11-05T13:21:37.834Z,96683.97
2022-11-05T13:24:22.807Z,96691.63
2022-11-05T13:27:08.060Z,96692.38
2022-11-05T13:29:53.323Z,96699.59
2022-11-05T13:32:38.442Z,96687.06
2022-11-05T13:35:23.448Z,96691.84
2022-11-05T13:38:08.235Z,96687.50
2022-11-05T13:40:53.307Z,96684.94
2022-11-05T13:43:38.246Z,96687.31
2022-11-05T13:46:23.405Z,96684.47
2022-11-05T13:49:08.456Z,96691.03
2022-11-05T13:51:53.716Z,96691.00
2022-11-05T13:54:38.765Z,96688.16
2022-11-05T13:57:23.820Z,96683.09
2022-11-05T14:00:08.938Z,96688.63
2022-11-05T14:02:53.989Z,96684.16
2022-11-05T14:05:39.078Z,96687.91
2022-11-05T14:08:24.009Z,96678.72
2022-11-05T14:11:09.133Z,96676.91
2022-11-05T14:13:53.951Z,96677.59
2022-11-05T14:16:39.390Z,96666.47
2022-11-05T14:19:24.235Z,96666.81
2022-11-05T14:22:09.315Z,96662.19
2022-11-05T14:24:54.593Z,96664.56
2022-11-05T14:27:39.832Z,96665.13
2022-11-05T14:30:25.178Z,96665.59
2022-11-05T14:33:10.535Z,96664.81
2022-11-05T14:35:55.819Z,96660.34
2022-11-05T14:38:40.911Z,96658.53
2022-11-05T14:41:25.919Z,96663.56
2022-11-05T14:44:10.989Z,96663.63
2022-11-05T14:46:56.132Z,96659.50
2022-11-05T14:49:41.503Z,96664.81
2022-11-05T14:52:26.453Z,96672.06
2022-11-05T14:55:11.788Z,96672.88
2022-11-05T14:57:56.977Z,96675.31
2022-11-05T15:00:42.027Z,96682.13
2022-11-05T15:03:27.255Z,96678.41
2022-11-05T15:06:12.383Z,96675.75
2022-11-05T15:08:57.580Z,96676.00
2022-11-05T15:11:42.548Z,96683.03
2022-11-05T15:14:27.414Z,96679.03
2022-11-05T15:17:12.467Z,96675.25
2022-11-05T15:19:57.940Z,96674.81
2022-11-05T15:22:43.239Z,96673.84
2022-11-05T15:25:28.363Z,96670.00
2022-11-05T15:28:13.358Z,96673.19
2022-11-05T15:30:58.441Z,96665.72
2022-11-05T15:33:43.687Z,96663.84
2022-11-05T15:36:28.651Z,96658.81
2022-11-05T15:39:28.918Z,96659.28
2022-11-05T15:42:14.877Z,96660.06
2022-11-05T15:44:59.732Z,96665.28
2022-11-05T15:47:44.968Z,96674.34
2022-11-05T15:50:29.864Z,96680.81
2022-11-05T15:53:41.738Z,96680.41
2022-11-05T15:56:20.282Z,96693.13
2022-11-05T15:59:05.665Z,96686.13
2022-11-05T16:01:50.722Z,96685.34
2022-11-05T16:04:35.907Z,96679.28
2022-11-05T16:07:21.070Z,96678.22
2022-11-05T16:10:09.996Z,96678.16
2022-11-05T16:12:57.582Z,96677.84
2022-11-05T16:15:42.844Z,96670.03
2022-11-05T16:18:27.892Z,96665.16
2022-11-05T16:21:12.830Z,96657.69
2022-11-05T16:23:58.300Z,96658.31
2022-11-05T16:29:48.357Z,96655.97
2022-11-05T16:32:33.456Z,96664.88
2022-11-05T16:35:18.720Z,96666.56
2022-11-05T16:38:03.895Z,96666.56
2022-11-05T16:40:48.868Z,96670.66
2022-11-05T16:43:33.756Z,96668.50
2022-11-05T16:46:18.867Z,96679.88
2022-11-05T16:49:03.961Z,96692.78
2022-11-05T16:51:49.087Z,96684.91
2022-11-05T16:54:34.033Z,96685.44
2022-11-05T16:57:19.243Z,96683.16
2022-11-05T17:00:04.282Z,96696.91
2022-11-05T17:02:49.581Z,96700.88
2022-11-05T17:05:34.626Z,96701.19
2022-11-05T17:08:19.765Z,96720.22
2022-11-05T17:11:04.868Z,96719.00
2022-11-05T17:13:49.790Z,96707.69
2022-11-05T17:16:35.032Z,96714.66
2022-11-05T17:19:20.055Z,96710.94
2022-11-05T17:22:05.108Z,96712.50
2022-11-05T17:24:50.187Z,96706.91
2022-11-05T17:27:35.297Z,96705.72
2022-11-05T17:30:20.464Z,96701.06
2022-11-05T17:33:05.564Z,96709.63
2022-11-05T17:35:50.504Z,96701.53
2022-11-05T17:38:35.439Z,96706.41
2022-11-05T17:41:20.720Z,96706.41
2022-11-05T17:44:05.460Z,96700.75
2022-11-05T17:46:50.203Z,96704.00
2022-11-05T17:49:35.191Z,96712.31
2022-11-05T17:52:20.197Z,96724.50
2022-11-05T17:55:05.484Z,96714.72
2022-11-05T17:57:50.433Z,96719.38
2022-11-05T18:00:35.516Z,96713.66
2022-11-05T18:03:20.463Z,96710.59
2022-11-05T18:06:05.677Z,96707.34
2022-11-05T18:08:50.852Z,96702.22
2022-11-05T18:11:39.075Z,96703.06
2022-11-05T18:14:24.383Z,96692.50
2022-11-05T18:17:09.311Z,96686.38
2022-11-05T18:19:54.238Z,96690.66
2022-11-05T18:22:39.317Z,96705.44
2022-11-05T18:25:24.418Z,96699.78
2022-11-05T18:28:09.739Z,96705.56
2022-11-05T18:30:55.071Z,96700.13
2022-11-05T18:33:40.094Z,96710.41
2022-11-05T18:36:25.056Z,96714.13
2022-11-05T18:39:09.958Z,96717.44
2022-11-05T18:41:55.203Z,96713.56
2022-11-05T18:44:40.313Z,96709.91
2022-11-05T18:47:25.625Z,96708.59
2022-11-05T18:50:10.670Z,96716.69
2022-11-05T18:52:55.655Z,96722.00
2022-11-05T18:55:40.668Z,96725.75
2022-11-05T18:58:25.812Z,96712.22
2022-11-05T19:01:10.778Z,96712.88
2022-11-05T19:03:55.822Z,96705.22
2022-11-05T19:06:40.962Z,96697.09
2022-11-05T19:09:26.061Z,96699.84
2022-11-05T19:12:11.264Z,96702.59
2022-11-05T19:15:01.896Z,96706.72
2022-11-05T19:17:47.253Z,96728.00
2022-11-05T19:20:37.514Z,96727.25
2022-11-05T19:23:23.106Z,96738.06
2022-11-05T19:26:08.220Z,96732.66
2022-11-05T19:28:53.391Z,96725.94
2022-11-05T19:31:38.371Z,96717.38
2022-11-05T19:34:23.386Z,96726.06
2022-11-05T19:37:08.593Z,96736.16
2022-11-05T19:39:53.423Z,96723.13
2022-11-05T19:42:38.526Z,96722.22
2022-11-05T19:45:43.670Z,96718.91
2022-11-05T19:48:28.687Z,96718.19
2022-11-05T19:51:13.859Z,96730.28
2022-11-05T19:53:58.894Z,96742.31
2022-11-05T19:56:44.075Z,96740.28
2022-11-05T19:59:29.056Z,96739.66
2022-11-05T20:02:16.461Z,96741.41
2022-11-05T20:05:01.881Z,96737.47
2022-11-05T20:07:52.339Z,96729.13
2022-11-05T20:10:37.932Z,96738.69
2022-11-05T20:13:22.810Z,96711.88
2022-11-05T20:16:07.657Z,96719.50
2022-11-05T20:18:52.778Z,96723.59
2022-11-05T20:21:37.768Z,96723.56
2022-11-05T20:24:25.285Z,96717.28
2022-11-05T20:27:10.534Z,96720.47
2022-11-05T20:29:55.599Z,96717.91
2022-11-05T20:32:40.655Z,96721.38
2022-11-05T20:35:25.702Z,96708.84
2022-11-05T20:38:11.912Z,96714.09
2022-11-05T20:40:57.256Z,96725.25
2022-11-05T20:43:42.223Z,96731.97
2022-11-05T20:46:27.361Z,96732.59
2022-11-05T20:49:15.407Z,96736.13
2022-11-05T20:52:00.466Z,96741.78
2022-11-05T20:54:45.527Z,96730.22
2022-11-05T20:57:30.581Z,96747.03
2022-11-05T21:00:15.860Z,96748.41
2022-11-05T21:03:00.976Z,96741.19
2022-11-05T21:05:45.867Z,96748.31
2022-11-05T21:08:30.881Z,96748.81
2022-11-05T21:11:15.999Z,96739.34
2022-11-05T21:14:01.228Z,96740.63
2022-11-05T21:16:46.356Z,96738.44
2022-11-05T21:19:31.572Z,96747.66
2022-11-05T21:22:16.586Z,96756.81
2022-11-05T21:25:01.661Z,96760.47
2022-11-05T21:27:46.697Z,96756.91
2022-11-05T21:30:31.977Z,96759.00
2022-11-05T21:33:17.029Z,96760.28
2022-11-05T21:36:01.985Z,96770.44
2022-11-05T21:38:47.113Z,96772.81
2022-11-05T21:41:32.146Z,96784.44
2022-11-05T21:44:17.271Z,96782.50
2022-11-05T21:47:02.302Z,96778.34
2022-11-05T21:49:47.455Z,96764.44
2022-11-05T21:52:32.520Z,96758.25
2022-11-05T21:55:17.532Z,96767.69
2022-11-05T21:58:02.640Z,96779.16
2022-11-05T22:00:47.609Z,96777.41
2022-11-05T22:03:32.727Z,96789.72
2022-11-05T22:06:17.661Z,96791.34
2022-11-05T22:09:02.782Z,96785.47
2022-11-05T22:11:47.723Z,96782.00
2022-11-05T22:14:32.659Z,96789.63
2022-11-05T22:17:17.762Z,96786.72
2022-11-05T22:20:02.824Z,96791.88
2022-11-05T22:22:47.938Z,96783.72
2022-11-05T22:25:32.907Z,96765.50
2022-11-05T22:28:18.042Z,96762.09
2022-11-05T22:31:02.997Z,96766.69
2022-11-05T22:33:48.080Z,96757.50
2022-11-05T22:36:32.979Z,96749.09
2022-11-05T22:39:18.010Z,96748.75
2022-11-05T22:42:07.227Z,96740.69
2022-11-05T22:44:53.772Z,96736.53
2022-11-05T22:47:38.740Z,96731.53
2022-11-05T22:50:23.757Z,96722.41
2022-11-05T22:53:08.943Z,96723.63
2022-11-05T22:55:54.300Z,96718.03
2022-11-05T22:58:39.338Z,96711.84
2022-11-05T23:01:24.637Z,96706.56
2022-11-05T23:04:09.690Z,96704.25
2022-11-05T23:06:54.859Z,96704.81
2022-11-05T23:09:40.085Z,96692.78
2022-11-05T23:12:25.055Z,96685.97
2022-11-05T23:15:10.616Z,96686.38
2022-11-05T23:17:55.666Z,96683.78
2022-11-05T23:20:40.802Z,96683.81
2022-11-05T23:23:25.987Z,96694.34
2022-11-05T23:26:10.922Z,96703.88
2022-11-05T23:28:56.090Z,96716.06
2022-11-05T23:31:41.118Z,96718.59
2022-11-05T23:34:26.187Z,96734.09
2022-11-05T23:37:11.249Z,96732.47
2022-11-05T23:39:56.335Z,96736.47
2022-11-05T23:42:41.359Z,96740.00
2022-11-05T23:45:26.437Z,96737.25
2022-11-05T23:48:12.131Z,96734.59
2022-11-05T23:50:57.094Z,96734.16
2022-11-05T23:53:42.150Z,96729.94
2022-11-05T23:56:27.158Z,96723.47
2022-11-05T23:59:12.223Z,96724.06
